Losser, Netherlands
Current Conditions -  °F | °C
As of 10:50 PM on Wednesday 26 Nov 2014 (Local Time) from EDDG Reporting Station
Light Rain Light Rain  
Wind Chill: 35°   Ceiling: 2100
Heat Index: 41°   Visibility: 6mi
Dew Point: 36°   Wind: 9mph
Humidity: 81%   Direction: 100°E
Pressure: 29.91"   Gusts: NA
Location:  52.26°N, 7°E
Report Text: EDDG 262150Z 10008KT 9999 -RA BKN021 05/02 Q1013 NOSIG
Loading
Personal Weather Stations






























Interactive Weather Map New forecast layout! Learn more

10-Day Weather Forecast

Advertisements
Track Severe Weather on mobile